Key West, Florida
Current Conditions -  °F | °C
As of 1:53 PM on Friday 31 Oct 2014 (Local Time) from KEYW Reporting Station
Few Clouds Few Clouds  
Wind Chill: 28°   Ceiling: Unl
Heat Index: 31°   Visibility: 10mi
Dew Point: 22°   Wind: 13mph
Humidity: 67%   Direction: 300°WNW
Pressure: 29.85"   Gusts: NA
Location:  24.55°N, 81.8°W
Report Text: KEYW 311753Z 30011KT 10SM FEW031 28/22 A2985 RMK AO2 SLP108 60000 T02830217 10283 20239 58018
Loading
Personal Weather Stations






























Interactive Weather Map
Tropical Storm Tracking
New forecast layout! Learn more

10-Day Weather Forecast

Advertisements
Track Severe Weather on mobile